Time;durP1;ratioP1;P1;durP2;ratioP2;P2;SDS_P1;SDS_P2;PMS_P1;PMS_P2;Temp;Humidity;BMP_temperature;BMP_pressure;BME280_temperature;BME280_humidity;BME280_pressure;Samples;Min_cycle;Max_cycle;Signal;HPM_P1;HPM_P2
2022/06/27 00:01:38;;;;;;;8.52;6.20;;;;;;;23.62;59.35;100595.91;5005362;28;20576;-65
2022/06/27 00:04:05;;;;;;;7.43;6.38;;;;;;;23.61;59.42;100604.16;5003846;28;20057;-65
2022/06/27 00:06:32;;;;;;;9.48;6.75;;;;;;;23.58;59.16;100594.59;5003532;28;20060;-65
2022/06/27 00:09:00;;;;;;;7.32;6.55;;;;;;;23.57;59.78;100594.78;4987786;28;20049;-64
2022/06/27 00:11:27;;;;;;;10.32;6.90;;;;;;;23.55;59.79;100594.09;5005081;28;20054;-65
2022/06/27 00:13:54;;;;;;;10.60;7.38;;;;;;;23.52;60.48;100591.78;5002489;28;20046;-64
2022/06/27 00:16:21;;;;;;;8.77;6.68;;;;;;;23.48;60.75;100591.28;5001853;28;20558;-64
2022/06/27 00:19:08;;;;;;;8.93;7.00;;;;;;;23.45;60.60;100599.69;5004220;28;20081;-63
2022/06/27 00:21:36;;;;;;;11.13;7.60;;;;;;;23.42;60.81;100611.66;4982736;28;20778;-64
2022/06/27 00:24:03;;;;;;;6.72;6.03;;;;;;;23.41;60.43;100609.13;5001064;28;20050;-64
2022/06/27 00:26:30;;;;;;;8.63;6.53;;;;;;;23.39;60.78;100611.97;5003554;28;20041;-65
2022/06/27 00:28:57;;;;;;;9.77;7.18;;;;;;;23.39;60.91;100611.97;5004237;28;20224;-64
2022/06/27 00:31:25;;;;;;;8.35;6.85;;;;;;;23.38;61.08;100614.84;4995134;28;20053;-64
2022/06/27 00:33:52;;;;;;;8.75;7.93;;;;;;;23.35;61.15;100616.03;5001328;28;20724;-64
2022/06/27 00:36:19;;;;;;;7.40;6.55;;;;;;;23.33;61.18;100618.06;5001553;28;20131;-64
2022/06/27 00:38:47;;;;;;;7.90;6.90;;;;;;;23.33;61.27;100609.16;5002087;28;20584;-64
2022/06/27 00:41:14;;;;;;;9.50;7.35;;;;;;;23.32;61.31;100612.84;5011659;28;20506;-64
2022/06/27 00:43:45;;;;;;;10.10;7.15;;;;;;;23.30;61.17;100607.66;5000584;28;20049;-64
2022/06/27 00:46:12;;;;;;;7.70;6.95;;;;;;;23.28;60.93;100607.00;4998225;28;20061;-64
2022/06/27 00:48:39;;;;;;;9.23;7.13;;;;;;;23.27;61.27;100617.91;5003004;28;20365;-64
2022/06/27 00:51:07;;;;;;;8.05;7.35;;;;;;;23.23;61.16;100612.88;4987594;28;20056;-64
2022/06/27 00:53:34;;;;;;;11.40;7.38;;;;;;;23.22;61.45;100605.81;4981935;28;20061;-64
2022/06/27 00:56:01;;;;;;;9.70;7.78;;;;;;;23.19;61.75;100602.63;5001226;28;20706;-64
2022/06/27 00:58:28;;;;;;;8.05;6.80;;;;;;;23.18;61.73;100617.09;5003558;28;20066;-64
2022/06/27 01:00:56;;;;;;;8.82;7.93;;;;;;;23.15;62.64;100612.09;4999012;28;20050;-63
2022/06/27 01:03:24;;;;;;;9.25;8.00;;;;;;;23.13;62.93;100608.72;5004942;28;20539;-64
2022/06/27 01:05:51;;;;;;;8.68;7.93;;;;;;;23.10;62.42;100598.31;4998339;28;20061;-64
2022/06/27 01:08:20;;;;;;;8.40;7.60;;;;;;;23.06;62.50;100603.22;4999186;28;20046;-64
2022/06/27 01:10:48;;;;;;;9.48;8.57;;;;;;;23.04;62.62;100589.09;5002080;28;20044;-64
2022/06/27 01:13:15;;;;;;;9.50;8.50;;;;;;;23.02;63.89;100596.50;5000137;28;20073;-64
2022/06/27 01:15:44;;;;;;;8.32;7.53;;;;;;;23.00;62.94;100593.97;4990433;28;20133;-64
2022/06/27 01:18:12;;;;;;;9.13;7.90;;;;;;;22.99;63.08;100604.88;4997057;28;20057;-63
2022/06/27 01:20:44;;;;;;;8.52;7.70;;;;;;;22.97;63.16;100607.75;5007113;28;20049;-63
2022/06/27 01:23:12;;;;;;;9.93;8.70;;;;;;;22.94;63.04;100604.56;5001116;28;20053;-64
2022/06/27 01:25:39;;;;;;;10.35;7.55;;;;;;;22.92;63.48;100612.81;5003217;28;20533;-64
2022/06/27 01:28:07;;;;;;;10.45;8.10;;;;;;;22.90;63.52;100605.91;5005927;28;20105;-63
2022/06/27 01:30:35;;;;;;;9.65;8.65;;;;;;;22.86;63.51;100601.88;5000989;28;20418;-64
2022/06/27 01:33:02;;;;;;;9.43;8.52;;;;;;;22.84;63.59;100604.72;5000295;28;20046;-64
2022/06/27 01:35:36;;;;;;;10.82;7.75;;;;;;;22.82;63.93;100612.09;4997472;28;20501;-65
2022/06/27 01:38:04;;;;;;;9.43;8.43;;;;;;;22.81;64.01;100612.28;4991179;28;20092;-64
2022/06/27 01:40:32;;;;;;;11.45;8.20;;;;;;;22.77;65.15;100611.78;5003802;28;20041;-63
2022/06/27 01:43:00;;;;;;;9.80;8.80;;;;;;;22.73;64.89;100611.28;4992174;28;20072;-64
2022/06/27 01:45:29;;;;;;;9.23;8.32;;;;;;;22.73;64.92;100613.13;4999303;28;20575;-65
2022/06/27 01:47:56;;;;;;;9.75;8.55;;;;;;;22.70;65.10;100614.31;4977036;28;20064;-63
2022/06/27 01:50:25;;;;;;;9.50;8.60;;;;;;;22.69;64.97;100627.88;4986071;28;20057;-64
2022/06/27 01:52:54;;;;;;;12.85;9.20;;;;;;;22.68;64.81;100621.69;5000217;28;20523;-64
2022/06/27 01:59:30;;;;;;;9.85;8.95;;;;;;;22.62;65.46;100622.38;4983273;28;20047;-64
2022/06/27 02:01:58;;;;;;;10.38;9.27;;;;;;;22.59;66.09;100617.31;4971281;28;20053;-64
2022/06/27 02:04:27;;;;;;;10.25;9.35;;;;;;;22.57;66.00;100623.88;4982828;28;20792;-65
2022/06/27 02:06:55;;;;;;;10.30;8.80;;;;;;;22.57;66.50;100630.09;5000437;28;20066;-64
2022/06/27 02:09:23;;;;;;;9.65;8.75;;;;;;;22.55;66.28;100624.03;4996671;28;20050;-65
2022/06/27 02:11:51;;;;;;;10.77;9.45;;;;;;;22.54;66.85;100632.25;5001833;28;20050;-65
2022/06/27 02:14:19;;;;;;;10.10;8.98;;;;;;;22.52;67.01;100637.81;4998155;28;20640;-64
2022/06/27 02:16:47;;;;;;;9.38;8.38;;;;;;;22.51;66.44;100636.09;4993480;28;20062;-65
2022/06/27 02:19:17;;;;;;;9.48;8.50;;;;;;;22.50;66.69;100634.44;4997662;28;20519;-65
2022/06/27 02:21:45;;;;;;;12.10;8.73;;;;;;;22.49;66.40;100632.75;4998916;28;20060;-65
2022/06/27 02:24:13;;;;;;;10.55;9.52;;;;;;;22.48;66.68;100636.47;4996233;28;20076;-64
2022/06/27 02:26:40;;;;;;;12.10;9.30;;;;;;;22.47;67.12;100640.16;5000621;28;20052;-64
2022/06/27 02:29:08;;;;;;;9.43;8.52;;;;;;;22.45;66.53;100644.84;4983840;28;20668;-64
2022/06/27 02:31:44;;;;;;;11.10;9.02;;;;;;;22.44;67.03;100638.63;4980538;28;20654;-65
2022/06/27 02:34:13;;;;;;;10.48;9.27;;;;;;;22.43;67.87;100642.31;5005226;28;20102;-64
2022/06/27 02:36:41;;;;;;;10.48;9.38;;;;;;;22.41;67.82;100638.94;4994636;28;20482;-64
2022/06/27 02:39:11;;;;;;;9.45;8.55;;;;;;;22.43;67.49;100641.50;4983969;28;20057;-64
2022/06/27 02:41:42;;;;;;;9.80;8.90;;;;;;;22.42;67.45;100645.16;4995843;28;20797;-64
2022/06/27 02:44:13;;;;;;;10.10;9.18;;;;;;;22.44;68.04;100645.84;4998402;28;20061;-65
2022/06/27 02:46:41;;;;;;;11.05;9.77;;;;;;;22.43;68.08;100644.19;4998246;28;20076;-65
2022/06/27 02:49:09;;;;;;;10.80;9.70;;;;;;;22.43;68.18;100655.75;5002526;28;20050;-65
2022/06/27 02:51:48;;;;;;;11.45;10.27;;;;;;;22.43;67.90;100646.84;4995327;28;20061;-64
2022/06/27 02:54:20;;;;;;;11.70;9.68;;;;;;;22.43;67.76;100652.22;5005126;28;20077;-65
2022/06/27 02:56:52;;;;;;;10.45;9.45;;;;;;;22.41;67.70;100654.22;5000088;28;20107;-65
2022/06/27 02:59:25;;;;;;;12.07;10.05;;;;;;;22.42;68.35;100653.19;5004605;28;20148;-65
2022/06/27 03:01:56;;;;;;;10.85;9.75;;;;;;;22.37;68.74;100659.06;5011110;28;20184;-65
2022/06/27 03:04:23;;;;;;;10.82;9.85;;;;;;;22.34;68.89;100664.78;4986539;28;20090;-65
2022/06/27 03:06:50;;;;;;;11.27;10.25;;;;;;;22.33;68.97;100664.94;4991715;28;20102;-65
2022/06/27 03:09:18;;;;;;;13.43;12.02;;;;;;;22.32;69.28;100663.25;4983890;28;20074;-65
2022/06/27 03:11:48;;;;;;;11.02;9.90;;;;;;;22.32;68.66;100663.25;4993465;28;20050;-64
2022/06/27 03:14:15;;;;;;;11.60;10.48;;;;;;;22.32;69.38;100660.56;5003014;28;20581;-65
2022/06/27 03:16:43;;;;;;;11.80;10.60;;;;;;;22.30;69.57;100662.59;4993865;28;20660;-65
2022/06/27 03:19:11;;;;;;;11.20;10.13;;;;;;;22.29;69.32;100660.91;4999347;28;20054;-65
2022/06/27 03:21:40;;;;;;;13.35;10.50;;;;;;;22.27;70.51;100652.19;4982504;28;20042;-64
2022/06/27 03:24:08;;;;;;;11.10;9.75;;;;;;;22.27;69.79;100660.25;5000768;28;20161;-65
2022/06/27 03:26:35;;;;;;;13.63;11.15;;;;;;;22.27;70.20;100660.25;4980843;28;20054;-64
2022/06/27 03:29:03;;;;;;;10.45;9.52;;;;;;;22.27;70.32;100658.38;5002144;28;20057;-65
2022/06/27 03:31:30;;;;;;;19.27;10.30;;;;;;;22.28;69.98;100664.59;4986174;28;20136;-65
2022/06/27 03:33:58;;;;;;;11.70;10.60;;;;;;;22.29;69.83;100664.44;4983905;28;20065;-65
2022/06/27 03:36:25;;;;;;;11.95;10.73;;;;;;;22.31;70.09;100662.41;4999731;28;20061;-65
2022/06/27 03:38:52;;;;;;;11.57;10.60;;;;;;;22.33;70.24;100670.28;4998378;28;20041;-64
2022/06/27 03:41:20;;;;;;;14.43;11.88;;;;;;;22.35;70.56;100662.94;5000585;28;20045;-64
2022/06/27 03:43:47;;;;;;;13.30;11.90;;;;;;;22.36;70.27;100664.59;5009704;28;20054;-64
2022/06/27 03:46:15;;;;;;;13.32;11.63;;;;;;;;;;4998498;28;20053;-64
2022/06/27 03:51:28;;;;;;;14.05;11.98;;;;;;;22.46;70.04;100678.69;5011343;28;20050;-64
2022/06/27 03:53:55;;;;;;;12.68;11.48;;;;;;;22.48;70.45;100672.16;4984897;28;20058;-64
2022/06/27 03:56:22;;;;;;;12.77;11.27;;;;;;;22.52;70.18;100670.00;5003463;28;20058;-64
2022/06/27 03:58:49;;;;;;;12.70;11.48;;;;;;;22.55;70.36;100677.69;5004270;28;20103;-64
2022/06/27 04:01:17;;;;;;;14.35;12.38;;;;;;;22.56;70.22;100665.97;5004618;28;20046;-64
2022/06/27 04:03:44;;;;;;;14.45;11.98;;;;;;;22.58;70.28;100665.81;5005532;28;20801;-65
2022/06/27 04:06:11;;;;;;;13.00;11.82;;;;;;;22.62;69.88;100661.78;5002877;28;20053;-65
2022/06/27 04:08:39;;;;;;;12.48;11.38;;;;;;;22.64;70.32;100671.31;5005850;28;20077;-65
2022/06/27 04:11:06;;;;;;;12.07;10.98;;;;;;;22.67;69.68;100667.47;5004449;28;20058;-67
2022/06/27 04:13:33;;;;;;;13.57;11.95;;;;;;;22.68;69.68;100659.25;5002058;28;20540;-68
2022/06/27 04:16:00;;;;;;;13.23;11.23;;;;;;;22.71;69.51;100666.13;5003780;28;20054;-68
2022/06/27 04:18:28;;;;;;;12.25;11.10;;;;;;;22.76;69.31;100658.41;5002404;28;20056;-59
2022/06/27 04:20:55;;;;;;;11.82;10.50;;;;;;;22.82;69.34;100662.25;4997711;28;20046;-60
2022/06/27 04:23:22;;;;;;;12.85;11.48;;;;;;;22.88;69.24;100654.38;4985104;28;20064;-60
2022/06/27 04:25:50;;;;;;;12.63;11.40;;;;;;;22.94;69.07;100648.34;5006520;28;20064;-57
2022/06/27 04:28:17;;;;;;;11.73;10.65;;;;;;;22.97;69.00;100655.25;5004123;28;20151;-60
2022/06/27 04:30:44;;;;;;;12.70;11.52;;;;;;;23.03;68.75;100648.34;5000054;28;20363;-60
2022/06/27 04:33:13;;;;;;;13.75;12.25;;;;;;;23.07;68.61;100636.25;4999995;28;20050;-60
2022/06/27 04:35:41;;;;;;;12.43;11.18;;;;;;;23.15;68.49;100641.63;4997990;28;20055;-60
2022/06/27 04:38:08;;;;;;;12.02;10.88;;;;;;;23.23;68.57;100633.50;5003854;28;20050;-59
2022/06/27 04:40:35;;;;;;;13.35;12.05;;;;;;;23.29;67.94;100629.31;4996966;28;20218;-60
2022/06/27 04:43:08;;;;;;;12.45;11.25;;;;;;;23.34;67.76;100625.09;5006257;28;20054;-60
2022/06/27 04:45:36;;;;;;;11.85;10.75;;;;;;;23.38;67.37;100626.44;4997981;28;20054;-60
2022/06/27 04:48:07;;;;;;;14.00;11.60;;;;;;;23.41;67.57;100625.22;5002578;28;20061;-60
2022/06/27 04:50:36;;;;;;;15.00;12.85;;;;;;;23.45;67.38;100619.34;5005389;28;20049;-59
2022/06/27 04:53:04;;;;;;;14.80;11.57;;;;;;;23.49;66.92;100622.53;5001819;28;20629;-60
2022/06/27 04:55:32;;;;;;;12.30;11.10;;;;;;;23.50;67.08;100625.06;5001002;28;20051;-63
2022/06/27 04:57:59;;;;;;;21.20;12.13;;;;;;;23.54;67.11;100627.38;5000709;28;20069;-62
2022/06/27 05:00:27;;;;;;;12.80;11.48;;;;;;;23.56;66.74;100625.34;4999330;28;20072;-58
2022/06/27 05:02:54;;;;;;;12.32;11.23;;;;;;;23.64;66.74;100633.34;5003569;28;20701;-58
2022/06/27 05:05:23;;;;;;;11.48;10.38;;;;;;;23.66;66.51;100626.00;5001656;28;20077;-61
2022/06/27 05:07:51;;;;;;;12.52;11.00;;;;;;;23.74;66.15;100626.81;5004032;28;20057;-64
2022/06/27 05:10:19;;;;;;;14.63;10.95;;;;;;;23.81;66.01;100629.63;5005908;28;20525;-62
2022/06/27 05:12:46;;;;;;;11.63;10.55;;;;;;;23.92;65.83;100631.09;5015419;28;20069;-62
2022/06/27 05:15:17;;;;;;;10.98;10.02;;;;;;;23.98;65.88;100625.81;4986213;28;20206;-60
2022/06/27 05:17:44;;;;;;;13.45;11.40;;;;;;;24.08;65.37;100632.81;5006263;28;20078;-61
2022/06/27 05:20:12;;;;;;;12.30;11.13;;;;;;;24.13;65.12;100631.25;5005369;28;20141;-61
2022/06/27 05:22:40;;;;;;;10.48;9.65;;;;;;;24.18;65.11;100623.53;5004328;28;20226;-63
2022/06/27 05:25:08;;;;;;;12.88;11.68;;;;;;;24.23;64.48;100628.38;5014181;28;20113;-61
2022/06/27 05:27:35;;;;;;;12.70;11.48;;;;;;;24.23;64.65;100639.13;5012222;28;20128;-68
2022/06/27 05:30:05;;;;;;;11.27;10.27;;;;;;;24.29;64.39;100632.19;5025653;28;20072;-80
2022/06/27 05:32:35;;;;;;;15.10;10.88;;;;;;;24.36;64.41;100630.44;5006299;28;20045;-78
2022/06/27 05:35:06;;;;;;;11.95;10.23;;;;;;;24.50;63.67;100635.09;4997412;28;20053;-77
2022/06/27 05:37:35;;;;;;;12.98;10.48;;;;;;;24.60;63.57;100635.66;5005747;28;20060;-79
2022/06/27 05:40:03;;;;;;;12.45;11.15;;;;;;;24.70;63.10;100635.41;4971353;28;20076;-78
2022/06/27 05:42:32;;;;;;;12.50;11.15;;;;;;;24.80;62.74;100643.22;4988323;28;20053;-80
2022/06/27 05:45:03;;;;;;;12.00;10.57;;;;;;;24.89;62.50;100642.13;5006327;28;20116;-77
2022/06/27 05:47:31;;;;;;;11.73;10.52;;;;;;;24.97;62.46;100640.19;5001836;28;20037;-77
2022/06/27 05:49:59;;;;;;;13.75;10.93;;;;;;;25.02;62.03;100645.84;4989757;28;20049;-78
2022/06/27 05:52:27;;;;;;;11.50;10.30;;;;;;;25.12;61.68;100642.09;4994979;28;20050;-77
2022/06/27 05:54:55;;;;;;;11.70;10.52;;;;;;;25.16;61.41;100644.22;4994245;28;20488;-77
2022/06/27 05:57:24;;;;;;;12.43;10.23;;;;;;;25.20;61.44;100644.69;4980559;28;20045;-77
2022/06/27 05:59:55;;;;;;;11.65;10.45;;;;;;;25.30;61.31;100649.81;5020261;28;20046;-78
2022/06/27 06:02:23;;;;;;;14.32;10.38;;;;;;;25.34;60.68;100648.41;5007317;28;20100;-78
2022/06/27 06:04:51;;;;;;;11.90;10.75;;;;;;;25.40;60.82;100653.06;5000709;28;20038;-78
2022/06/27 06:07:22;;;;;;;11.73;10.52;;;;;;;25.47;60.87;100652.13;5017093;28;20109;-78
2022/06/27 06:09:50;;;;;;;12.13;9.65;;;;;;;25.57;60.21;100646.44;5001092;28;20045;-78
2022/06/27 06:12:18;;;;;;;13.52;10.10;;;;;;;25.60;59.87;100639.84;4976565;28;20077;-79
2022/06/27 06:14:47;;;;;;;11.10;10.10;;;;;;;25.69;59.49;100650.34;5005849;28;20115;-78
2022/06/27 06:17:17;;;;;;;11.60;10.63;;;;;;;25.74;59.04;100653.28;4999857;28;20339;-78
2022/06/27 06:19:44;;;;;;;15.95;10.40;;;;;;;25.77;58.72;100657.53;4991840;28;20045;-75
2022/06/27 06:22:13;;;;;;;9.45;8.68;;;;;;;25.86;58.40;100651.00;4991027;28;20046;-77
2022/06/27 06:24:40;;;;;;;12.27;10.00;;;;;;;25.95;58.40;100651.72;5002917;28;20057;-76
2022/06/27 06:27:09;;;;;;;10.45;9.55;;;;;;;26.02;58.32;100648.03;4982476;28;20050;-76
2022/06/27 06:29:36;;;;;;;10.60;9.13;;;;;;;26.15;57.58;100652.75;4991108;28;20423;-76
2022/06/27 06:32:04;;;;;;;11.85;9.98;;;;;;;26.28;57.12;100649.38;5007606;28;20052;-76
2022/06/27 06:34:35;;;;;;;14.18;10.18;;;;;;;26.31;56.97;100645.47;5009729;28;20050;-76
2022/06/27 06:37:03;;;;;;;10.77;9.73;;;;;;;26.37;56.76;100644.69;5000235;28;20082;-77
2022/06/27 06:39:36;;;;;;;9.65;8.77;;;;;;;26.49;56.79;100643.16;4978071;28;20052;-76
2022/06/27 06:42:04;;;;;;;10.38;9.38;;;;;;;26.59;56.30;100645.53;4979317;28;20076;-77
2022/06/27 06:44:31;;;;;;;10.05;9.05;;;;;;;26.68;55.36;100645.19;5001293;28;20045;-77
2022/06/27 06:46:59;;;;;;;10.20;9.13;;;;;;;26.77;55.32;100640.50;4985931;28;20493;-72
2022/06/27 06:49:26;;;;;;;14.88;9.35;;;;;;;26.75;55.18;100639.88;5004399;28;20061;-76
2022/06/27 06:51:53;;;;;;;9.15;8.35;;;;;;;26.79;54.96;100640.28;5004301;28;20056;-75
2022/06/27 06:54:22;;;;;;;12.05;8.48;;;;;;;26.94;54.37;100636.47;5003259;28;20399;-75
2022/06/27 06:56:52;;;;;;;9.48;8.07;;;;;;;27.08;53.84;100634.69;5003688;28;20050;-77
2022/06/27 06:59:20;;;;;;;10.77;8.43;;;;;;;27.22;53.56;100631.06;4976285;28;20078;-73
2022/06/27 07:01:47;;;;;;;9.88;8.75;;;;;;;27.29;53.06;100627.56;4983392;28;20064;-73
2022/06/27 07:04:16;;;;;;;11.23;7.28;;;;;;;27.38;52.64;100619.09;4988764;28;20548;-77
2022/06/27 07:06:45;;;;;;;11.23;7.75;;;;;;;27.45;52.75;100627.22;4985069;28;20068;-72
2022/06/27 07:09:12;;;;;;;9.27;7.80;;;;;;;27.54;52.46;100633.31;4983941;28;20066;-75
2022/06/27 07:11:40;;;;;;;8.68;6.90;;;;;;;27.62;51.70;100620.44;4988768;28;20076;-75
2022/06/27 07:14:07;;;;;;;8.40;7.63;;;;;;;27.73;51.14;100625.28;4996544;28;20447;-74
2022/06/27 07:16:35;;;;;;;8.27;7.32;;;;;;;27.81;51.01;100616.16;5004655;28;20056;-73
2022/06/27 07:19:06;;;;;;;8.43;6.88;;;;;;;27.91;50.68;100616.59;5014226;28;20054;-74
2022/06/27 07:21:34;;;;;;;11.18;7.43;;;;;;;28.05;50.63;100628.28;4990236;28;20427;-74
2022/06/27 07:24:03;;;;;;;9.43;6.97;;;;;;;28.10;49.88;100620.41;5006133;28;20061;-74
2022/06/27 07:26:31;;;;;;;8.02;7.15;;;;;;;28.16;49.52;100622.28;4975959;28;21259;-72
2022/06/27 07:29:04;;;;;;;9.25;6.25;;;;;;;28.22;49.72;100616.03;5005897;28;20061;-72
2022/06/27 07:31:32;;;;;;;7.10;6.40;;;;;;;28.32;49.39;100612.94;5004570;28;20050;-81
2022/06/27 07:34:02;;;;;;;8.43;5.90;;;;;;;28.46;49.06;100616.50;4983995;28;20049;-80
2022/06/27 07:39:26;;;;;;;11.23;6.40;;;;;;;28.81;48.47;100617.13;5017384;28;20240;-63
2022/06/27 07:41:55;;;;;;;7.65;5.95;;;;;;;28.94;47.61;100610.84;5002619;28;20509;-65
2022/06/27 07:44:22;;;;;;;9.02;6.40;;;;;;;28.99;47.14;100611.09;4984173;28;20038;-65
2022/06/27 07:46:49;;;;;;;8.48;6.65;;;;;;;29.01;47.57;100611.72;5004607;28;20060;-65
2022/06/27 07:49:16;;;;;;;8.13;5.82;;;;;;;29.12;46.99;100610.22;5009080;28;20123;-65
2022/06/27 07:51:44;;;;;;;9.75;6.22;;;;;;;29.30;46.54;100593.28;5003666;22;20550;-59
2022/06/27 07:54:11;;;;;;;11.10;5.47;;;;;;;29.52;45.23;100581.94;4984826;28;20130;-59
2022/06/27 07:56:39;;;;;;;10.00;5.38;;;;;;;29.63;44.25;100590.44;4981353;28;20506;-60
2022/06/27 07:59:26;;;;;;;6.93;5.40;;;;;;;29.68;43.55;100599.63;4986821;28;20065;-58
2022/06/27 08:01:54;;;;;;;6.28;4.80;;;;;;;29.72;43.34;100590.00;4977937;28;20046;-59
2022/06/27 08:04:22;;;;;;;10.68;5.07;;;;;;;29.80;43.52;100593.50;4985195;28;20065;-59
2022/06/27 08:06:50;;;;;;;6.28;5.13;;;;;;;29.82;42.67;100594.13;4979604;28;20102;-59
2022/06/27 08:09:22;;;;;;;4.63;4.15;;;;;;;29.92;42.61;100591.78;4981113;28;20519;-60
2022/06/27 08:11:50;;;;;;;5.50;4.22;;;;;;;30.07;40.52;100599.59;4979773;28;20054;-59
2022/06/27 08:14:17;;;;;;;4.72;4.13;;;;;;;30.13;40.35;100598.75;4988595;28;20054;-59
2022/06/27 08:16:49;;;;;;;5.68;4.32;;;;;;;30.26;40.70;100596.78;4986794;28;20085;-59
2022/06/27 08:19:18;;;;;;;4.50;3.65;;;;;;;30.38;40.27;100599.59;4986572;28;20066;-59
2022/06/27 08:21:47;;;;;;;4.93;3.85;;;;;;;30.49;39.32;100604.34;4977478;28;20069;-59
2022/06/27 08:24:18;;;;;;;5.85;3.88;;;;;;;30.61;39.49;100599.00;4982041;28;20046;-59
2022/06/27 08:26:46;;;;;;;5.80;4.18;;;;;;;30.68;38.44;100599.78;4976878;28;20058;-59
2022/06/27 08:29:15;;;;;;;3.85;3.40;;;;;;;30.77;38.69;100590.31;4981064;28;20073;-60
2022/06/27 08:31:44;;;;;;;6.72;3.63;;;;;;;30.95;38.24;100580.53;4981102;28;20054;-59
2022/06/27 08:34:13;;;;;;;5.63;3.42;;;;;;;31.02;38.64;100583.97;4981177;28;20059;-59
2022/06/27 08:36:40;;;;;;;4.10;3.70;;;;;;;30.97;38.84;100597.44;4977070;28;20061;-59
2022/06/27 08:39:16;;;;;;;8.15;3.50;;;;;;;31.02;38.42;100598.41;4984422;28;20069;-60
2022/06/27 08:41:45;;;;;;;4.22;3.40;;;;;;;31.10;38.30;100585.59;4983564;28;20530;-60
2022/06/27 08:44:13;;;;;;;3.67;3.38;;;;;;;31.22;38.54;100590.03;4983598;28;20053;-60
2022/06/27 08:46:41;;;;;;;4.47;3.28;;;;;;;31.32;39.06;100581.38;4978451;28;20082;-60
2022/06/27 08:49:14;;;;;;;9.48;4.03;;;;;;;31.33;38.47;100591.19;4987484;28;20077;-60
2022/06/27 08:51:42;;;;;;;4.30;3.90;;;;;;;31.41;38.12;100579.19;4982531;28;20252;-60
2022/06/27 08:54:09;;;;;;;7.43;4.00;;;;;;;31.48;38.50;100590.81;4982039;28;20133;-59
2022/06/27 08:56:39;;;;;;;6.75;3.58;;;;;;;31.61;38.33;100582.50;5009673;28;20073;-57
2022/06/27 08:59:06;;;;;;;7.80;4.00;;;;;;;31.73;38.52;100593.41;4983737;28;20486;-59
2022/06/27 09:01:33;;;;;;;4.72;3.85;;;;;;;31.80;37.45;100585.16;4979794;28;20066;-58
2022/06/27 09:04:04;;;;;;;6.05;4.47;;;;;;;31.84;37.56;100583.63;4983308;28;20096;-59
2022/06/27 09:06:33;;;;;;;7.25;3.58;;;;;;;31.80;37.27;100580.53;4980188;28;20058;-60
2022/06/27 09:09:08;;;;;;;6.13;3.50;;;;;;;31.81;37.66;100574.03;4979596;28;20605;-59
2022/06/27 09:11:37;;;;;;;;;;;;;;;31.89;37.08;100572.91;4976622;28;20496;-60
2022/06/27 09:14:05;;;;;;;4.90;3.33;;;;;;;31.96;37.21;100579.06;4987958;28;19921;-60
2022/06/27 09:16:34;;;;;;;3.70;3.28;;;;;;;32.10;36.42;100575.06;4979207;28;20172;-60
2022/06/27 09:19:06;;;;;;;5.38;3.47;;;;;;;32.11;36.40;100576.75;4982782;28;20059;-60
2022/06/27 09:21:33;;;;;;;5.82;3.63;;;;;;;32.05;36.77;100571.41;4980663;28;20050;-59
2022/06/27 09:24:01;;;;;;;3.75;3.45;;;;;;;32.06;36.87;100565.72;4984416;28;20045;-59
2022/06/27 09:26:31;;;;;;;5.38;3.28;;;;;;;31.99;36.80;100568.56;4981389;28;20054;-60
2022/06/27 09:29:02;;;;;;;3.70;2.70;;;;;;;32.10;36.37;100576.97;4983099;28;20050;-58
2022/06/27 09:31:37;;;;;;;4.85;3.40;;;;;;;32.15;36.28;100566.22;4976019;28;20062;-59
2022/06/27 09:34:25;;;;;;;4.13;3.20;;;;;;;32.26;36.33;100568.13;4979248;28;20058;-60
2022/06/27 09:37:03;;;;;;;3.30;3.00;;;;;;;32.21;35.24;100562.56;4978900;28;20212;-59
2022/06/27 09:39:35;;;;;;;3.47;2.92;;;;;;;32.22;34.73;100550.59;4979990;28;20050;-58
2022/06/27 09:42:20;;;;;;;5.95;3.38;;;;;;;32.18;33.96;100566.56;4969912;28;20062;-59
2022/06/27 09:44:47;;;;;;;3.67;2.90;;;;;;;32.20;33.25;100559.00;4975822;28;20154;-59
2022/06/27 09:47:20;;;;;;;6.78;3.53;;;;;;;32.19;32.93;100568.22;4976851;28;20042;-60
2022/06/27 09:49:50;;;;;;;4.57;3.10;;;;;;;32.32;33.27;100564.47;4980259;28;20053;-53
2022/06/27 09:52:23;;;;;;;6.18;3.05;;;;;;;32.39;33.38;100572.56;4975613;28;20068;-59
2022/06/27 09:54:52;;;;;;;3.45;2.85;;;;;;;32.45;33.30;100566.16;4975255;28;20061;-60
2022/06/27 09:57:20;;;;;;;5.10;2.80;;;;;;;32.54;32.50;100566.66;4977546;28;20151;-58
2022/06/27 09:59:49;;;;;;;3.20;2.72;;;;;;;32.55;33.02;100571.84;4982460;28;20157;-59
2022/06/27 10:02:18;;;;;;;12.95;3.28;;;;;;;32.62;33.02;100572.56;4980304;28;20289;-58
2022/06/27 10:04:46;;;;;;;3.60;2.55;;;;;;;32.72;32.79;100563.81;4976607;28;20051;-58
2022/06/27 10:07:16;;;;;;;3.20;2.42;;;;;;;32.89;32.26;100561.19;4979778;28;20054;-60
2022/06/27 10:09:45;;;;;;;5.05;2.80;;;;;;;33.00;31.88;100550.28;4980259;28;20057;-58
2022/06/27 10:12:19;;;;;;;2.45;2.25;;;;;;;33.06;32.43;100551.22;4976328;28;20065;-59
2022/06/27 10:14:46;;;;;;;3.60;2.67;;;;;;;33.09;32.11;100549.91;4966395;28;20507;-59
2022/06/27 10:17:14;;;;;;;3.15;2.53;;;;;;;33.06;32.08;100543.03;4977825;28;20062;-59
2022/06/27 10:20:06;;;;;;;4.68;2.70;;;;;;;33.14;31.92;100539.09;4977698;28;20050;-59
2022/06/27 10:22:33;;;;;;;5.68;2.15;;;;;;;33.18;31.81;100546.56;4980215;28;20616;-60
2022/06/27 10:25:26;;;;;;;4.05;2.70;;;;;;;33.19;31.68;100542.78;4976925;28;20608;-60
2022/06/27 10:28:12;;;;;;;3.42;2.70;;;;;;;33.25;31.82;100558.16;4981612;28;20072;-60
2022/06/27 10:30:43;;;;;;;3.08;2.40;;;;;;;33.29;31.77;100553.06;4978889;28;20084;-60
2022/06/27 10:33:22;;;;;;;2.63;2.42;;;;;;;33.39;31.96;100561.44;4983398;28;20085;-59
2022/06/27 10:36:29;;;;;;;7.45;3.08;;;;;;;33.49;31.32;100548.03;4984246;28;20216;-61
2022/06/27 10:38:51;;;;;;;6.13;2.85;;;;;;;33.69;30.19;100554.97;4975890;28;20058;-59
2022/06/27 10:41:18;;;;;;;4.20;2.25;;;;;;;33.87;29.52;100548.47;4973581;28;20074;-59
2022/06/27 10:43:49;;;;;;;3.72;2.45;;;;;;;34.00;29.19;100542.72;4978049;28;20057;-59
2022/06/27 10:46:16;;;;;;;4.13;2.42;;;;;;;34.12;29.26;100531.69;4982167;28;20068;-56
2022/06/27 10:48:52;;;;;;;4.10;2.50;;;;;;;34.22;29.36;100521.78;4985298;28;20059;-57
2022/06/27 10:51:19;;;;;;;5.55;2.30;;;;;;;34.30;28.71;100538.81;4982232;28;20073;-57
2022/06/27 10:53:50;;;;;;;4.95;2.67;;;;;;;34.42;29.29;100531.34;4980941;28;20058;-58
2022/06/27 10:56:37;;;;;;;4.70;2.67;;;;;;;34.69;28.63;100532.31;4979704;28;20384;-58
2022/06/27 10:59:07;;;;;;;2.92;2.63;;;;;;;34.95;28.66;100522.56;4978167;28;20064;-58
2022/06/27 11:01:34;;;;;;;2.92;2.47;;;;;;;35.06;28.57;100529.00;4975849;28;20061;-59
2022/06/27 11:04:02;;;;;;;4.57;2.67;;;;;;;35.28;28.10;100520.78;4963959;28;20054;-55
2022/06/27 11:06:29;;;;;;;5.10;2.92;;;;;;;35.55;28.00;100517.28;4976015;28;20496;-55
2022/06/27 11:08:56;;;;;;;4.43;2.35;;;;;;;35.61;27.15;100519.78;4976468;28;20050;-58
2022/06/27 11:11:27;;;;;;;5.68;2.40;;;;;;;35.56;26.82;100514.25;4979404;28;20395;-59
2022/06/27 11:13:56;;;;;;;4.75;2.50;;;;;;;35.72;27.20;100509.78;4982402;28;20563;-58
2022/06/27 11:16:31;;;;;;;10.98;2.88;;;;;;;35.90;27.11;100519.53;4976946;28;20054;-59
2022/06/27 11:19:02;;;;;;;6.40;3.03;;;;;;;35.97;26.67;100506.44;4983171;28;20062;-59
2022/06/27 11:21:36;;;;;;;3.38;2.72;;;;;;;36.05;26.58;100505.16;4976816;28;20047;-57
2022/06/27 11:24:09;;;;;;;4.78;2.65;;;;;;;36.01;26.85;100502.94;4978027;28;20396;-56
2022/06/27 11:26:47;;;;;;;3.25;2.80;;;;;;;35.96;26.77;100510.28;4982363;28;20054;-57
2022/06/27 11:32:10;;;;;;;3.78;2.67;;;;;;;36.15;26.87;100486.84;4963771;28;20074;-57
2022/06/27 11:34:43;;;;;;;3.70;3.03;;;;;;;36.38;26.30;100477.41;4967046;28;20066;-57
2022/06/27 11:37:18;;;;;;;5.65;2.80;;;;;;;36.48;26.29;100479.44;4964674;28;20055;-58
2022/06/27 11:40:00;;;;;;;4.88;3.30;;;;;;;36.70;26.26;100487.47;4964103;28;20054;-57
2022/06/27 11:42:35;;;;;;;5.53;3.10;;;;;;;36.64;25.51;100488.56;4962548;28;20073;-58